sensor_id;sensor_type;location;lat;lon;timestamp;P1;durP1;ratioP1;P2;durP2;ratioP2
38238;SDS011;24035;48.900;9.188;2023-03-01T00:01:58;16.70;;;6.07;;
38238;SDS011;24035;48.900;9.188;2023-03-01T00:04:24;15.30;;;5.68;;
38238;SDS011;24035;48.900;9.188;2023-03-01T00:06:50;13.18;;;5.53;;
38238;SDS011;24035;48.900;9.188;2023-03-01T00:09:16;13.52;;;6.03;;
38238;SDS011;24035;48.900;9.188;2023-03-01T00:11:42;15.32;;;5.57;;
38238;SDS011;24035;48.900;9.188;2023-03-01T00:14:08;11.25;;;4.72;;
38238;SDS011;24035;48.900;9.188;2023-03-01T00:16:36;15.13;;;6.00;;
38238;SDS011;24035;48.900;9.188;2023-03-01T00:19:04;19.85;;;5.90;;
38238;SDS011;24035;48.900;9.188;2023-03-01T00:21:32;11.52;;;4.90;;
38238;SDS011;24035;48.900;9.188;2023-03-01T00:23:58;11.65;;;5.03;;
38238;SDS011;24035;48.900;9.188;2023-03-01T00:26:25;14.57;;;5.63;;
38238;SDS011;24035;48.900;9.188;2023-03-01T00:28:51;10.93;;;5.30;;
38238;SDS011;24035;48.900;9.188;2023-03-01T00:31:18;10.77;;;4.95;;
38238;SDS011;24035;48.900;9.188;2023-03-01T00:33:45;15.18;;;5.60;;
38238;SDS011;24035;48.900;9.188;2023-03-01T00:36:12;12.70;;;6.43;;
38238;SDS011;24035;48.900;9.188;2023-03-01T00:38:40;11.75;;;6.15;;
38238;SDS011;24035;48.900;9.188;2023-03-01T00:41:11;12.48;;;5.82;;
38238;SDS011;24035;48.900;9.188;2023-03-01T00:43:39;12.27;;;5.95;;
38238;SDS011;24035;48.900;9.188;2023-03-01T00:46:06;16.30;;;5.53;;
38238;SDS011;24035;48.900;9.188;2023-03-01T00:48:39;12.10;;;5.15;;
38238;SDS011;24035;48.900;9.188;2023-03-01T00:51:14;14.82;;;6.05;;
38238;SDS011;24035;48.900;9.188;2023-03-01T00:53:40;13.55;;;5.57;;
38238;SDS011;24035;48.900;9.188;2023-03-01T00:56:07;13.63;;;5.50;;
38238;SDS011;24035;48.900;9.188;2023-03-01T00:58:35;15.00;;;5.72;;
38238;SDS011;24035;48.900;9.188;2023-03-01T01:01:01;13.07;;;5.97;;
38238;SDS011;24035;48.900;9.188;2023-03-01T01:03:32;10.48;;;4.90;;
38238;SDS011;24035;48.900;9.188;2023-03-01T01:05:57;18.38;;;6.38;;
38238;SDS011;24035;48.900;9.188;2023-03-01T01:08:23;17.80;;;5.88;;
38238;SDS011;24035;48.900;9.188;2023-03-01T01:10:49;11.50;;;5.82;;
38238;SDS011;24035;48.900;9.188;2023-03-01T01:13:14;13.02;;;6.03;;
38238;SDS011;24035;48.900;9.188;2023-03-01T01:15:40;14.40;;;5.78;;
38238;SDS011;24035;48.900;9.188;2023-03-01T01:18:06;14.35;;;5.93;;
38238;SDS011;24035;48.900;9.188;2023-03-01T01:20:32;13.48;;;6.13;;
38238;SDS011;24035;48.900;9.188;2023-03-01T01:22:58;18.25;;;6.53;;
38238;SDS011;24035;48.900;9.188;2023-03-01T01:25:23;15.70;;;6.32;;
38238;SDS011;24035;48.900;9.188;2023-03-01T01:27:52;14.40;;;6.15;;
38238;SDS011;24035;48.900;9.188;2023-03-01T01:30:17;13.00;;;5.82;;
38238;SDS011;24035;48.900;9.188;2023-03-01T01:32:43;11.45;;;5.57;;
38238;SDS011;24035;48.900;9.188;2023-03-01T01:35:09;12.98;;;6.03;;
38238;SDS011;24035;48.900;9.188;2023-03-01T01:37:34;15.00;;;6.00;;
38238;SDS011;24035;48.900;9.188;2023-03-01T01:40:00;13.10;;;6.43;;
38238;SDS011;24035;48.900;9.188;2023-03-01T01:42:29;14.02;;;5.95;;
38238;SDS011;24035;48.900;9.188;2023-03-01T01:48:04;12.45;;;6.05;;
38238;SDS011;24035;48.900;9.188;2023-03-01T01:50:54;14.77;;;5.53;;
38238;SDS011;24035;48.900;9.188;2023-03-01T01:53:23;11.30;;;5.13;;
38238;SDS011;24035;48.900;9.188;2023-03-01T01:55:52;12.55;;;6.07;;
38238;SDS011;24035;48.900;9.188;2023-03-01T01:58:23;14.30;;;6.83;;
38238;SDS011;24035;48.900;9.188;2023-03-01T02:00:52;14.70;;;6.10;;
38238;SDS011;24035;48.900;9.188;2023-03-01T02:03:20;11.65;;;5.70;;
38238;SDS011;24035;48.900;9.188;2023-03-01T02:05:54;11.98;;;6.43;;
38238;SDS011;24035;48.900;9.188;2023-03-01T02:08:28;12.52;;;5.68;;
38238;SDS011;24035;48.900;9.188;2023-03-01T02:10:57;13.27;;;6.40;;
38238;SDS011;24035;48.900;9.188;2023-03-01T02:13:29;13.07;;;5.68;;
38238;SDS011;24035;48.900;9.188;2023-03-01T02:15:56;12.70;;;5.22;;
38238;SDS011;24035;48.900;9.188;2023-03-01T02:18:22;15.40;;;6.47;;
38238;SDS011;24035;48.900;9.188;2023-03-01T02:23:53;10.60;;;5.40;;
38238;SDS011;24035;48.900;9.188;2023-03-01T02:28:51;14.95;;;6.57;;
38238;SDS011;24035;48.900;9.188;2023-03-01T02:31:18;13.35;;;6.93;;
38238;SDS011;24035;48.900;9.188;2023-03-01T02:34:03;15.05;;;6.40;;
38238;SDS011;24035;48.900;9.188;2023-03-01T02:36:37;12.20;;;6.35;;
38238;SDS011;24035;48.900;9.188;2023-03-01T02:39:06;12.90;;;5.93;;
38238;SDS011;24035;48.900;9.188;2023-03-01T02:41:41;12.77;;;6.22;;
38238;SDS011;24035;48.900;9.188;2023-03-01T02:44:11;14.05;;;6.45;;
38238;SDS011;24035;48.900;9.188;2023-03-01T02:46:48;13.57;;;6.70;;
38238;SDS011;24035;48.900;9.188;2023-03-01T02:49:20;14.13;;;6.25;;
38238;SDS011;24035;48.900;9.188;2023-03-01T02:54:48;15.20;;;6.10;;
38238;SDS011;24035;48.900;9.188;2023-03-01T02:57:19;14.67;;;6.20;;
38238;SDS011;24035;48.900;9.188;2023-03-01T02:59:47;15.70;;;6.68;;
38238;SDS011;24035;48.900;9.188;2023-03-01T03:02:20;13.88;;;5.85;;
38238;SDS011;24035;48.900;9.188;2023-03-01T03:05:20;14.77;;;7.10;;
38238;SDS011;24035;48.900;9.188;2023-03-01T03:07:48;14.55;;;6.75;;
38238;SDS011;24035;48.900;9.188;2023-03-01T03:10:16;14.57;;;6.13;;
38238;SDS011;24035;48.900;9.188;2023-03-01T03:12:53;13.85;;;6.43;;
38238;SDS011;24035;48.900;9.188;2023-03-01T03:15:24;13.63;;;6.32;;
38238;SDS011;24035;48.900;9.188;2023-03-01T03:17:50;18.95;;;7.20;;
38238;SDS011;24035;48.900;9.188;2023-03-01T03:20:17;15.43;;;7.22;;
38238;SDS011;24035;48.900;9.188;2023-03-01T03:22:49;18.75;;;7.72;;
38238;SDS011;24035;48.900;9.188;2023-03-01T03:25:17;13.05;;;6.57;;
38238;SDS011;24035;48.900;9.188;2023-03-01T03:27:44;15.95;;;6.18;;
38238;SDS011;24035;48.900;9.188;2023-03-01T03:30:12;12.98;;;6.47;;
38238;SDS011;24035;48.900;9.188;2023-03-01T03:32:41;13.95;;;6.85;;
38238;SDS011;24035;48.900;9.188;2023-03-01T03:35:16;11.38;;;6.15;;
38238;SDS011;24035;48.900;9.188;2023-03-01T03:37:41;17.58;;;6.38;;
38238;SDS011;24035;48.900;9.188;2023-03-01T03:40:26;14.48;;;6.40;;
38238;SDS011;24035;48.900;9.188;2023-03-01T03:42:53;12.40;;;5.80;;
38238;SDS011;24035;48.900;9.188;2023-03-01T03:45:19;13.68;;;6.25;;
38238;SDS011;24035;48.900;9.188;2023-03-01T03:47:45;19.38;;;7.95;;
38238;SDS011;24035;48.900;9.188;2023-03-01T03:50:11;14.68;;;6.53;;
38238;SDS011;24035;48.900;9.188;2023-03-01T03:52:38;14.45;;;6.53;;
38238;SDS011;24035;48.900;9.188;2023-03-01T03:55:04;12.00;;;6.28;;
38238;SDS011;24035;48.900;9.188;2023-03-01T03:57:34;13.70;;;6.00;;
38238;SDS011;24035;48.900;9.188;2023-03-01T04:00:00;16.25;;;6.22;;
38238;SDS011;24035;48.900;9.188;2023-03-01T04:02:29;20.90;;;7.45;;
38238;SDS011;24035;48.900;9.188;2023-03-01T04:04:55;18.42;;;7.35;;
38238;SDS011;24035;48.900;9.188;2023-03-01T04:07:21;13.65;;;6.75;;
38238;SDS011;24035;48.900;9.188;2023-03-01T04:09:46;17.88;;;7.15;;
38238;SDS011;24035;48.900;9.188;2023-03-01T04:12:12;15.02;;;6.10;;
38238;SDS011;24035;48.900;9.188;2023-03-01T04:14:38;14.40;;;6.75;;
38238;SDS011;24035;48.900;9.188;2023-03-01T04:17:03;15.80;;;6.93;;
38238;SDS011;24035;48.900;9.188;2023-03-01T04:19:33;12.60;;;6.28;;
38238;SDS011;24035;48.900;9.188;2023-03-01T04:22:04;14.30;;;6.22;;
38238;SDS011;24035;48.900;9.188;2023-03-01T04:24:37;18.48;;;6.25;;
38238;SDS011;24035;48.900;9.188;2023-03-01T04:27:03;14.57;;;7.47;;
38238;SDS011;24035;48.900;9.188;2023-03-01T04:29:28;14.90;;;6.25;;
38238;SDS011;24035;48.900;9.188;2023-03-01T04:31:54;14.60;;;6.07;;
38238;SDS011;24035;48.900;9.188;2023-03-01T04:34:20;17.70;;;6.95;;
38238;SDS011;24035;48.900;9.188;2023-03-01T04:36:46;14.55;;;7.20;;
38238;SDS011;24035;48.900;9.188;2023-03-01T04:39:11;17.45;;;7.28;;
38238;SDS011;24035;48.900;9.188;2023-03-01T04:41:37;12.98;;;6.28;;
38238;SDS011;24035;48.900;9.188;2023-03-01T04:44:04;13.25;;;6.90;;
38238;SDS011;24035;48.900;9.188;2023-03-01T04:46:31;15.63;;;6.95;;
38238;SDS011;24035;48.900;9.188;2023-03-01T04:48:57;16.88;;;6.75;;
38238;SDS011;24035;48.900;9.188;2023-03-01T04:51:23;18.15;;;6.50;;
38238;SDS011;24035;48.900;9.188;2023-03-01T04:53:49;12.88;;;6.18;;
38238;SDS011;24035;48.900;9.188;2023-03-01T04:56:15;12.38;;;4.97;;
38238;SDS011;24035;48.900;9.188;2023-03-01T04:58:43;13.88;;;6.45;;
38238;SDS011;24035;48.900;9.188;2023-03-01T05:01:13;16.17;;;6.95;;
38238;SDS011;24035;48.900;9.188;2023-03-01T05:03:45;14.82;;;6.40;;
38238;SDS011;24035;48.900;9.188;2023-03-01T05:06:12;16.63;;;6.65;;
38238;SDS011;24035;48.900;9.188;2023-03-01T05:08:39;14.98;;;6.13;;
38238;SDS011;24035;48.900;9.188;2023-03-01T05:11:06;14.80;;;6.53;;
38238;SDS011;24035;48.900;9.188;2023-03-01T05:13:34;13.80;;;6.75;;
38238;SDS011;24035;48.900;9.188;2023-03-01T05:16:01;14.55;;;7.28;;
38238;SDS011;24035;48.900;9.188;2023-03-01T05:18:28;15.75;;;7.05;;
38238;SDS011;24035;48.900;9.188;2023-03-01T05:21:11;18.48;;;6.93;;
38238;SDS011;24035;48.900;9.188;2023-03-01T05:23:38;17.88;;;6.95;;
38238;SDS011;24035;48.900;9.188;2023-03-01T05:26:05;14.40;;;6.65;;
38238;SDS011;24035;48.900;9.188;2023-03-01T05:28:31;16.15;;;6.70;;
38238;SDS011;24035;48.900;9.188;2023-03-01T05:30:57;19.40;;;7.18;;
38238;SDS011;24035;48.900;9.188;2023-03-01T05:33:24;15.60;;;6.70;;
38238;SDS011;24035;48.900;9.188;2023-03-01T05:35:50;13.02;;;6.22;;
38238;SDS011;24035;48.900;9.188;2023-03-01T05:38:18;18.42;;;7.10;;
38238;SDS011;24035;48.900;9.188;2023-03-01T05:40:45;13.73;;;6.85;;
38238;SDS011;24035;48.900;9.188;2023-03-01T05:43:13;13.90;;;6.95;;
38238;SDS011;24035;48.900;9.188;2023-03-01T05:45:40;13.35;;;6.47;;
38238;SDS011;24035;48.900;9.188;2023-03-01T05:48:07;17.52;;;6.68;;
38238;SDS011;24035;48.900;9.188;2023-03-01T05:50:38;12.88;;;5.90;;
38238;SDS011;24035;48.900;9.188;2023-03-01T05:53:10;16.55;;;7.63;;
38238;SDS011;24035;48.900;9.188;2023-03-01T05:55:44;15.57;;;7.05;;
38238;SDS011;24035;48.900;9.188;2023-03-01T05:58:18;18.75;;;6.78;;
38238;SDS011;24035;48.900;9.188;2023-03-01T06:00:45;14.38;;;6.50;;
38238;SDS011;24035;48.900;9.188;2023-03-01T06:03:14;11.93;;;6.70;;
38238;SDS011;24035;48.900;9.188;2023-03-01T06:05:41;15.57;;;6.57;;
38238;SDS011;24035;48.900;9.188;2023-03-01T06:08:08;16.08;;;7.78;;
38238;SDS011;24035;48.900;9.188;2023-03-01T06:10:35;16.10;;;6.93;;
38238;SDS011;24035;48.900;9.188;2023-03-01T06:13:01;15.70;;;6.72;;
38238;SDS011;24035;48.900;9.188;2023-03-01T06:15:27;17.40;;;6.18;;
38238;SDS011;24035;48.900;9.188;2023-03-01T06:17:53;15.23;;;7.25;;
38238;SDS011;24035;48.900;9.188;2023-03-01T06:20:22;12.70;;;6.55;;
38238;SDS011;24035;48.900;9.188;2023-03-01T06:22:49;14.63;;;7.03;;
38238;SDS011;24035;48.900;9.188;2023-03-01T06:25:16;15.68;;;7.45;;
38238;SDS011;24035;48.900;9.188;2023-03-01T06:27:44;15.38;;;6.15;;
38238;SDS011;24035;48.900;9.188;2023-03-01T06:30:11;15.60;;;7.10;;
38238;SDS011;24035;48.900;9.188;2023-03-01T06:32:39;19.13;;;7.00;;
38238;SDS011;24035;48.900;9.188;2023-03-01T06:35:09;17.60;;;6.97;;
38238;SDS011;24035;48.900;9.188;2023-03-01T06:37:40;13.98;;;7.30;;
38238;SDS011;24035;48.900;9.188;2023-03-01T06:40:06;17.30;;;6.97;;
38238;SDS011;24035;48.900;9.188;2023-03-01T06:42:40;16.92;;;7.65;;
38238;SDS011;24035;48.900;9.188;2023-03-01T06:45:07;15.20;;;6.80;;
38238;SDS011;24035;48.900;9.188;2023-03-01T06:47:34;15.30;;;6.85;;
38238;SDS011;24035;48.900;9.188;2023-03-01T06:50:00;19.08;;;7.47;;
38238;SDS011;24035;48.900;9.188;2023-03-01T06:52:27;17.75;;;7.47;;
38238;SDS011;24035;48.900;9.188;2023-03-01T06:54:52;16.70;;;7.03;;
38238;SDS011;24035;48.900;9.188;2023-03-01T06:57:18;15.38;;;6.82;;
38238;SDS011;24035;48.900;9.188;2023-03-01T06:59:44;16.70;;;7.38;;
38238;SDS011;24035;48.900;9.188;2023-03-01T07:02:12;17.20;;;7.38;;
38238;SDS011;24035;48.900;9.188;2023-03-01T07:04:39;17.05;;;7.78;;
38238;SDS011;24035;48.900;9.188;2023-03-01T07:07:05;18.85;;;6.95;;
38238;SDS011;24035;48.900;9.188;2023-03-01T07:09:30;15.85;;;7.05;;
38238;SDS011;24035;48.900;9.188;2023-03-01T07:11:56;19.15;;;8.10;;
38238;SDS011;24035;48.900;9.188;2023-03-01T07:14:22;18.58;;;7.80;;
38238;SDS011;24035;48.900;9.188;2023-03-01T07:16:52;17.77;;;8.27;;
38238;SDS011;24035;48.900;9.188;2023-03-01T07:19:18;18.17;;;8.35;;
38238;SDS011;24035;48.900;9.188;2023-03-01T07:21:44;15.80;;;7.95;;
38238;SDS011;24035;48.900;9.188;2023-03-01T07:24:10;15.88;;;6.97;;
38238;SDS011;24035;48.900;9.188;2023-03-01T07:26:36;15.50;;;7.85;;
38238;SDS011;24035;48.900;9.188;2023-03-01T07:29:03;15.90;;;7.60;;
38238;SDS011;24035;48.900;9.188;2023-03-01T07:31:31;15.98;;;7.35;;
38238;SDS011;24035;48.900;9.188;2023-03-01T07:33:57;13.77;;;7.30;;
38238;SDS011;24035;48.900;9.188;2023-03-01T07:36:23;15.45;;;7.15;;
38238;SDS011;24035;48.900;9.188;2023-03-01T07:38:50;15.93;;;7.85;;
38238;SDS011;24035;48.900;9.188;2023-03-01T07:41:16;13.10;;;6.78;;
38238;SDS011;24035;48.900;9.188;2023-03-01T07:43:42;19.90;;;9.07;;
38238;SDS011;24035;48.900;9.188;2023-03-01T07:46:09;19.77;;;7.95;;
38238;SDS011;24035;48.900;9.188;2023-03-01T07:48:34;13.50;;;6.40;;
38238;SDS011;24035;48.900;9.188;2023-03-01T07:51:00;16.73;;;7.25;;
38238;SDS011;24035;48.900;9.188;2023-03-01T07:53:27;17.63;;;8.25;;
38238;SDS011;24035;48.900;9.188;2023-03-01T07:56:00;20.67;;;7.18;;
38238;SDS011;24035;48.900;9.188;2023-03-01T07:58:27;19.63;;;8.57;;
38238;SDS011;24035;48.900;9.188;2023-03-01T08:00:52;14.95;;;7.43;;
38238;SDS011;24035;48.900;9.188;2023-03-01T08:03:18;18.27;;;8.55;;
38238;SDS011;24035;48.900;9.188;2023-03-01T08:05:44;18.77;;;7.78;;
38238;SDS011;24035;48.900;9.188;2023-03-01T08:08:09;17.73;;;7.28;;
38238;SDS011;24035;48.900;9.188;2023-03-01T08:10:35;17.65;;;7.90;;
38238;SDS011;24035;48.900;9.188;2023-03-01T08:13:01;15.02;;;7.93;;
38238;SDS011;24035;48.900;9.188;2023-03-01T08:15:27;18.23;;;7.95;;
38238;SDS011;24035;48.900;9.188;2023-03-01T08:17:53;16.73;;;6.88;;
38238;SDS011;24035;48.900;9.188;2023-03-01T08:20:19;19.33;;;8.95;;
38238;SDS011;24035;48.900;9.188;2023-03-01T08:22:44;13.88;;;7.70;;
38238;SDS011;24035;48.900;9.188;2023-03-01T08:25:10;17.70;;;8.68;;
38238;SDS011;24035;48.900;9.188;2023-03-01T08:27:36;18.42;;;7.10;;
38238;SDS011;24035;48.900;9.188;2023-03-01T08:30:01;17.00;;;8.40;;
38238;SDS011;24035;48.900;9.188;2023-03-01T08:32:37;17.50;;;7.00;;
38238;SDS011;24035;48.900;9.188;2023-03-01T08:35:03;17.33;;;7.07;;
38238;SDS011;24035;48.900;9.188;2023-03-01T08:37:29;20.08;;;8.90;;
38238;SDS011;24035;48.900;9.188;2023-03-01T08:39:58;15.75;;;7.38;;
38238;SDS011;24035;48.900;9.188;2023-03-01T08:42:25;15.52;;;6.88;;
38238;SDS011;24035;48.900;9.188;2023-03-01T08:44:51;15.38;;;7.22;;
38238;SDS011;24035;48.900;9.188;2023-03-01T08:47:17;18.17;;;8.27;;
38238;SDS011;24035;48.900;9.188;2023-03-01T08:49:43;17.08;;;8.80;;
38238;SDS011;24035;48.900;9.188;2023-03-01T08:52:09;15.82;;;7.53;;
38238;SDS011;24035;48.900;9.188;2023-03-01T08:54:34;16.20;;;7.70;;
38238;SDS011;24035;48.900;9.188;2023-03-01T08:57:03;14.18;;;7.28;;
38238;SDS011;24035;48.900;9.188;2023-03-01T08:59:29;17.33;;;8.80;;
38238;SDS011;24035;48.900;9.188;2023-03-01T09:01:55;18.38;;;7.20;;
38238;SDS011;24035;48.900;9.188;2023-03-01T09:04:21;14.90;;;7.22;;
38238;SDS011;24035;48.900;9.188;2023-03-01T09:06:47;19.65;;;7.88;;
38238;SDS011;24035;48.900;9.188;2023-03-01T09:09:14;16.73;;;7.18;;
38238;SDS011;24035;48.900;9.188;2023-03-01T09:11:41;17.92;;;8.45;;
38238;SDS011;24035;48.900;9.188;2023-03-01T09:14:08;19.38;;;8.07;;
38238;SDS011;24035;48.900;9.188;2023-03-01T09:16:34;17.02;;;8.02;;
38238;SDS011;24035;48.900;9.188;2023-03-01T09:19:01;17.00;;;7.15;;
38238;SDS011;24035;48.900;9.188;2023-03-01T09:21:27;16.63;;;7.18;;
38238;SDS011;24035;48.900;9.188;2023-03-01T09:23:55;16.95;;;7.68;;
38238;SDS011;24035;48.900;9.188;2023-03-01T09:26:22;15.98;;;7.43;;
38238;SDS011;24035;48.900;9.188;2023-03-01T09:28:49;20.70;;;7.72;;
38238;SDS011;24035;48.900;9.188;2023-03-01T09:31:16;17.58;;;7.75;;
38238;SDS011;24035;48.900;9.188;2023-03-01T09:33:45;16.35;;;8.30;;
38238;SDS011;24035;48.900;9.188;2023-03-01T09:36:16;17.42;;;8.23;;
38238;SDS011;24035;48.900;9.188;2023-03-01T09:38:44;15.00;;;7.25;;
38238;SDS011;24035;48.900;9.188;2023-03-01T09:43:47;15.65;;;7.22;;
38238;SDS011;24035;48.900;9.188;2023-03-01T09:46:19;20.45;;;8.02;;
38238;SDS011;24035;48.900;9.188;2023-03-01T09:51:34;19.25;;;7.75;;
38238;SDS011;24035;48.900;9.188;2023-03-01T09:54:02;16.35;;;7.82;;
38238;SDS011;24035;48.900;9.188;2023-03-01T09:56:40;18.38;;;7.35;;
38238;SDS011;24035;48.900;9.188;2023-03-01T10:01:57;18.30;;;7.63;;
38238;SDS011;24035;48.900;9.188;2023-03-01T10:04:49;16.48;;;7.93;;
38238;SDS011;24035;48.900;9.188;2023-03-01T10:07:50;14.13;;;7.30;;
38238;SDS011;24035;48.900;9.188;2023-03-01T10:10:26;17.80;;;8.70;;
38238;SDS011;24035;48.900;9.188;2023-03-01T10:13:06;20.90;;;7.75;;
38238;SDS011;24035;48.900;9.188;2023-03-01T10:15:43;15.95;;;7.25;;
38238;SDS011;24035;48.900;9.188;2023-03-01T10:18:14;14.20;;;7.13;;
38238;SDS011;24035;48.900;9.188;2023-03-01T10:23:18;16.70;;;7.95;;
38238;SDS011;24035;48.900;9.188;2023-03-01T10:25:50;14.30;;;7.18;;
38238;SDS011;24035;48.900;9.188;2023-03-01T10:28:25;16.15;;;7.68;;
38238;SDS011;24035;48.900;9.188;2023-03-01T10:30:56;16.45;;;7.22;;
38238;SDS011;24035;48.900;9.188;2023-03-01T10:33:28;16.25;;;7.93;;
38238;SDS011;24035;48.900;9.188;2023-03-01T10:36:02;16.90;;;7.82;;
38238;SDS011;24035;48.900;9.188;2023-03-01T10:38:29;14.88;;;7.53;;
38238;SDS011;24035;48.900;9.188;2023-03-01T10:41:11;16.98;;;8.23;;
38238;SDS011;24035;48.900;9.188;2023-03-01T10:43:47;14.35;;;7.28;;
38238;SDS011;24035;48.900;9.188;2023-03-01T10:46:22;20.38;;;7.78;;
38238;SDS011;24035;48.900;9.188;2023-03-01T10:49:00;12.50;;;6.90;;
38238;SDS011;24035;48.900;9.188;2023-03-01T10:51:30;14.30;;;6.70;;
38238;SDS011;24035;48.900;9.188;2023-03-01T10:53:56;14.98;;;7.40;;
38238;SDS011;24035;48.900;9.188;2023-03-01T10:56:22;17.17;;;7.05;;
38238;SDS011;24035;48.900;9.188;2023-03-01T10:59:10;14.90;;;7.93;;
38238;SDS011;24035;48.900;9.188;2023-03-01T11:04:58;14.77;;;7.43;;
38238;SDS011;24035;48.900;9.188;2023-03-01T11:07:26;14.48;;;7.10;;
38238;SDS011;24035;48.900;9.188;2023-03-01T11:09:52;21.50;;;7.28;;
38238;SDS011;24035;48.900;9.188;2023-03-01T11:12:17;17.80;;;7.75;;
38238;SDS011;24035;48.900;9.188;2023-03-01T11:14:47;14.75;;;8.32;;
38238;SDS011;24035;48.900;9.188;2023-03-01T11:17:17;14.63;;;7.10;;
38238;SDS011;24035;48.900;9.188;2023-03-01T11:23:21;14.82;;;7.32;;
38238;SDS011;24035;48.900;9.188;2023-03-01T11:25:33;20.02;;;7.13;;
38238;SDS011;24035;48.900;9.188;2023-03-01T11:28:03;15.93;;;7.53;;
38238;SDS011;24035;48.900;9.188;2023-03-01T11:36:26;13.90;;;6.45;;
38238;SDS011;24035;48.900;9.188;2023-03-01T11:39:34;13.70;;;7.13;;
38238;SDS011;24035;48.900;9.188;2023-03-01T11:44:55;14.55;;;7.15;;
38238;SDS011;24035;48.900;9.188;2023-03-01T11:47:46;15.32;;;6.18;;
38238;SDS011;24035;48.900;9.188;2023-03-01T11:50:35;14.02;;;6.63;;
38238;SDS011;24035;48.900;9.188;2023-03-01T12:03:26;14.60;;;6.85;;
38238;SDS011;24035;48.900;9.188;2023-03-01T12:14:50;13.65;;;7.25;;
38238;SDS011;24035;48.900;9.188;2023-03-01T12:17:37;18.27;;;6.55;;
38238;SDS011;24035;48.900;9.188;2023-03-01T12:20:16;17.75;;;6.95;;
38238;SDS011;24035;48.900;9.188;2023-03-01T12:47:22;14.20;;;5.95;;
38238;SDS011;24035;48.900;9.188;2023-03-01T12:50:02;12.75;;;5.50;;
38238;SDS011;24035;48.900;9.188;2023-03-01T12:52:50;12.57;;;5.82;;
38238;SDS011;24035;48.900;9.188;2023-03-01T12:55:37;13.13;;;6.07;;
38238;SDS011;24035;48.900;9.188;2023-03-01T13:00:44;13.65;;;6.47;;
38238;SDS011;24035;48.900;9.188;2023-03-01T13:09:06;12.02;;;6.35;;
38238;SDS011;24035;48.900;9.188;2023-03-01T13:11:42;14.25;;;6.32;;
38238;SDS011;24035;48.900;9.188;2023-03-01T13:16:50;13.18;;;6.10;;
38238;SDS011;24035;48.900;9.188;2023-03-01T13:19:21;13.55;;;6.18;;
38238;SDS011;24035;48.900;9.188;2023-03-01T13:21:49;16.20;;;6.63;;
38238;SDS011;24035;48.900;9.188;2023-03-01T13:29:47;13.70;;;6.72;;
38238;SDS011;24035;48.900;9.188;2023-03-01T13:32:33;14.07;;;6.78;;
38238;SDS011;24035;48.900;9.188;2023-03-01T13:37:31;11.27;;;6.22;;
38238;SDS011;24035;48.900;9.188;2023-03-01T13:40:56;11.98;;;6.93;;
38238;SDS011;24035;48.900;9.188;2023-03-01T13:42:49;12.02;;;6.55;;
38238;SDS011;24035;48.900;9.188;2023-03-01T13:45:23;13.25;;;6.38;;
38238;SDS011;24035;48.900;9.188;2023-03-01T13:48:15;12.00;;;6.78;;
38238;SDS011;24035;48.900;9.188;2023-03-01T13:50:54;15.82;;;7.18;;
38238;SDS011;24035;48.900;9.188;2023-03-01T13:53:24;10.20;;;6.18;;
38238;SDS011;24035;48.900;9.188;2023-03-01T13:55:52;14.95;;;6.95;;
38238;SDS011;24035;48.900;9.188;2023-03-01T13:58:24;11.70;;;6.53;;
38238;SDS011;24035;48.900;9.188;2023-03-01T14:01:00;15.40;;;7.40;;
38238;SDS011;24035;48.900;9.188;2023-03-01T14:03:29;12.20;;;6.78;;
38238;SDS011;24035;48.900;9.188;2023-03-01T14:06:07;11.95;;;6.22;;
38238;SDS011;24035;48.900;9.188;2023-03-01T14:08:37;13.00;;;7.13;;
38238;SDS011;24035;48.900;9.188;2023-03-01T14:16:33;17.23;;;7.00;;
38238;SDS011;24035;48.900;9.188;2023-03-01T14:19:29;12.63;;;6.78;;
38238;SDS011;24035;48.900;9.188;2023-03-01T14:22:15;14.70;;;7.47;;
38238;SDS011;24035;48.900;9.188;2023-03-01T14:24:48;11.25;;;5.70;;
38238;SDS011;24035;48.900;9.188;2023-03-01T14:27:16;11.35;;;6.35;;
38238;SDS011;24035;48.900;9.188;2023-03-01T14:29:44;14.85;;;6.72;;
38238;SDS011;24035;48.900;9.188;2023-03-01T14:32:30;11.27;;;6.20;;
38238;SDS011;24035;48.900;9.188;2023-03-01T14:34:58;11.10;;;5.85;;
38238;SDS011;24035;48.900;9.188;2023-03-01T14:37:26;11.93;;;5.90;;
38238;SDS011;24035;48.900;9.188;2023-03-01T14:39:53;13.95;;;6.05;;
38238;SDS011;24035;48.900;9.188;2023-03-01T14:42:21;15.82;;;6.68;;
38238;SDS011;24035;48.900;9.188;2023-03-01T14:44:49;14.85;;;6.97;;
38238;SDS011;24035;48.900;9.188;2023-03-01T14:47:23;12.80;;;6.75;;
38238;SDS011;24035;48.900;9.188;2023-03-01T14:49:57;12.73;;;6.25;;
38238;SDS011;24035;48.900;9.188;2023-03-01T14:52:36;11.07;;;6.15;;
38238;SDS011;24035;48.900;9.188;2023-03-01T14:55:05;10.55;;;6.40;;
38238;SDS011;24035;48.900;9.188;2023-03-01T14:57:42;14.13;;;6.90;;
38238;SDS011;24035;48.900;9.188;2023-03-01T15:00:16;14.27;;;6.60;;
38238;SDS011;24035;48.900;9.188;2023-03-01T15:02:47;12.35;;;6.57;;
38238;SDS011;24035;48.900;9.188;2023-03-01T15:05:16;13.23;;;6.82;;
38238;SDS011;24035;48.900;9.188;2023-03-01T15:07:47;12.85;;;6.93;;
38238;SDS011;24035;48.900;9.188;2023-03-01T15:10:19;12.32;;;6.32;;
38238;SDS011;24035;48.900;9.188;2023-03-01T15:13:19;15.43;;;7.50;;
38238;SDS011;24035;48.900;9.188;2023-03-01T15:15:47;14.80;;;6.68;;
38238;SDS011;24035;48.900;9.188;2023-03-01T15:18:22;13.23;;;6.85;;
38238;SDS011;24035;48.900;9.188;2023-03-01T15:20:51;13.07;;;6.53;;
38238;SDS011;24035;48.900;9.188;2023-03-01T15:23:25;13.20;;;6.35;;
38238;SDS011;24035;48.900;9.188;2023-03-01T15:25:53;12.82;;;6.75;;
38238;SDS011;24035;48.900;9.188;2023-03-01T15:28:25;12.38;;;6.03;;
38238;SDS011;24035;48.900;9.188;2023-03-01T15:30:52;13.90;;;6.50;;
38238;SDS011;24035;48.900;9.188;2023-03-01T15:35:55;14.07;;;6.95;;
38238;SDS011;24035;48.900;9.188;2023-03-01T15:41:01;16.38;;;6.97;;
38238;SDS011;24035;48.900;9.188;2023-03-01T15:43:37;12.88;;;6.47;;
38238;SDS011;24035;48.900;9.188;2023-03-01T15:46:21;18.17;;;6.40;;
38238;SDS011;24035;48.900;9.188;2023-03-01T15:49:03;15.27;;;7.10;;
38238;SDS011;24035;48.900;9.188;2023-03-01T15:51:36;11.85;;;6.20;;
38238;SDS011;24035;48.900;9.188;2023-03-01T15:54:06;10.77;;;5.50;;
38238;SDS011;24035;48.900;9.188;2023-03-01T15:56:45;12.52;;;6.30;;
38238;SDS011;24035;48.900;9.188;2023-03-01T15:59:11;14.35;;;6.50;;
38238;SDS011;24035;48.900;9.188;2023-03-01T16:01:41;12.40;;;6.30;;
38238;SDS011;24035;48.900;9.188;2023-03-01T16:04:09;11.73;;;6.22;;
38238;SDS011;24035;48.900;9.188;2023-03-01T16:06:38;12.15;;;6.32;;
38238;SDS011;24035;48.900;9.188;2023-03-01T16:09:04;14.30;;;6.28;;
38238;SDS011;24035;48.900;9.188;2023-03-01T16:11:30;15.63;;;6.35;;
38238;SDS011;24035;48.900;9.188;2023-03-01T16:13:57;15.93;;;7.72;;
38238;SDS011;24035;48.900;9.188;2023-03-01T16:16:23;14.70;;;6.90;;
38238;SDS011;24035;48.900;9.188;2023-03-01T16:18:49;14.52;;;5.80;;
38238;SDS011;24035;48.900;9.188;2023-03-01T16:21:16;15.40;;;6.82;;
38238;SDS011;24035;48.900;9.188;2023-03-01T16:23:46;13.27;;;6.47;;
38238;SDS011;24035;48.900;9.188;2023-03-01T16:26:12;13.93;;;6.50;;
38238;SDS011;24035;48.900;9.188;2023-03-01T16:28:39;15.60;;;6.07;;
38238;SDS011;24035;48.900;9.188;2023-03-01T16:31:05;12.52;;;5.95;;
38238;SDS011;24035;48.900;9.188;2023-03-01T16:33:31;14.65;;;6.57;;
38238;SDS011;24035;48.900;9.188;2023-03-01T16:35:57;13.73;;;5.70;;
38238;SDS011;24035;48.900;9.188;2023-03-01T16:38:25;11.85;;;6.00;;
38238;SDS011;24035;48.900;9.188;2023-03-01T16:40:51;15.02;;;6.07;;